NKS1992 CYYC-CYVR
Flight info
| Callsign | NKS1992 |
|---|---|
| Flight time | N/A |
| Altitude | 38000 |
| Route | BOTAG Q894 BOOTH CANUC6 |
| Aircraft | A20N/M-SDE2E3FGHIRWXY/LB1 |
Departure
| Time | 2026-05-07 00:55 |
|---|---|
| Airport | Calgary International Airport (CYYC) |
Arrival
| Time | N/A |
|---|---|
| Airport | Vancouver International Airport (CYVR) |
| Time | Latitude | Longitude | Altitude | Speed | Heading |
|---|---|---|---|---|---|
| 2026-05-07 00:29 | 51.13190 | -114.01279 | 3567 ft | 0 kts | 72° |
| 2026-05-07 00:40 | 51.13189 | -114.01285 | 3567 ft | 2 kts | 72° |
| 2026-05-07 00:41 | 51.13182 | -114.01313 | 3561 ft | 3 kts | 64° |
| 2026-05-07 00:41 | 51.13173 | -114.01341 | 3560 ft | 3 kts | 56° |
| 2026-05-07 00:41 | 51.13161 | -114.01367 | 3557 ft | 3 kts | 46° |
| 2026-05-07 00:41 | 51.13146 | -114.01388 | 3560 ft | 3 kts | 30° |
| 2026-05-07 00:42 | 51.13128 | -114.01400 | 3566 ft | 3 kts | 354° |
| 2026-05-07 00:42 | 51.13119 | -114.01397 | 3566 ft | 0 kts | 326° |
| 2026-05-07 00:44 | 51.13120 | -114.01398 | 3566 ft | 1 kts | 326° |
| 2026-05-07 00:45 | 51.13134 | -114.01413 | 3566 ft | 4 kts | 326° |
| 2026-05-07 00:45 | 51.13152 | -114.01456 | 3561 ft | 6 kts | 289° |
| 2026-05-07 00:45 | 51.13156 | -114.01538 | 3565 ft | 9 kts | 271° |
| 2026-05-07 00:45 | 51.13149 | -114.01650 | 3561 ft | 11 kts | 248° |
| 2026-05-07 00:46 | 51.13102 | -114.01763 | 3564 ft | 13 kts | 248° |
| 2026-05-07 00:46 | 51.13096 | -114.01916 | 3560 ft | 15 kts | 273° |
| 2026-05-07 00:46 | 51.13095 | -114.02079 | 3563 ft | 15 kts | 259° |
| 2026-05-07 00:46 | 51.13068 | -114.02227 | 3561 ft | 15 kts | 264° |
| 2026-05-07 00:47 | 51.13052 | -114.02398 | 3562 ft | 15 kts | 228° |
| 2026-05-07 00:47 | 51.12947 | -114.02417 | 3556 ft | 16 kts | 179° |
| 2026-05-07 00:47 | 51.12826 | -114.02416 | 3562 ft | 18 kts | 180° |
| 2026-05-07 00:47 | 51.12693 | -114.02416 | 3561 ft | 20 kts | 180° |
| 2026-05-07 00:48 | 51.12605 | -114.02467 | 3561 ft | 9 kts | 267° |
| 2026-05-07 00:48 | 51.12605 | -114.02583 | 3560 ft | 12 kts | 266° |
| 2026-05-07 00:48 | 51.12604 | -114.02728 | 3559 ft | 14 kts | 277° |
| 2026-05-07 00:48 | 51.12635 | -114.02890 | 3559 ft | 16 kts | 295° |
| 2026-05-07 00:49 | 51.12693 | -114.03057 | 3558 ft | 18 kts | 300° |
| 2026-05-07 00:49 | 51.12759 | -114.03239 | 3554 ft | 20 kts | 300° |
| 2026-05-07 00:49 | 51.12825 | -114.03421 | 3557 ft | 17 kts | 300° |
| 2026-05-07 00:49 | 51.12855 | -114.03512 | 3557 ft | 0 kts | 288° |
| 2026-05-07 00:52 | 51.12856 | -114.03514 | 3557 ft | 1 kts | 288° |
| 2026-05-07 00:52 | 51.12860 | -114.03545 | 3556 ft | 4 kts | 279° |
| 2026-05-07 00:53 | 51.12859 | -114.03607 | 3556 ft | 7 kts | 259° |
| 2026-05-07 00:53 | 51.12829 | -114.03678 | 3556 ft | 9 kts | 228° |
| 2026-05-07 00:53 | 51.12768 | -114.03722 | 3556 ft | 11 kts | 191° |
| 2026-05-07 00:53 | 51.12695 | -114.03684 | 3552 ft | 12 kts | 136° |
| 2026-05-07 00:54 | 51.12663 | -114.03615 | 3555 ft | 0 kts | 119° |
| 2026-05-07 00:54 | 51.12663 | -114.03614 | 3555 ft | 0 kts | 119° |
| 2026-05-07 00:54 | 51.12608 | -114.03456 | 3553 ft | 51 kts | 118° |
| 2026-05-07 00:54 | 51.12295 | -114.02601 | 3558 ft | 124 kts | 121° |
| 2026-05-07 00:55 | 51.11775 | -114.01152 | 3685 ft | 168 kts | 119° |
| 2026-05-07 00:55 | 51.11138 | -113.99483 | 4196 ft | 189 kts | 121° |
| 2026-05-07 00:55 | 51.10391 | -113.97624 | 4790 ft | 214 kts | 121° |
| 2026-05-07 00:55 | 51.09512 | -113.95486 | 5438 ft | 241 kts | 122° |
| 2026-05-07 00:56 | 51.08413 | -113.93319 | 6125 ft | 265 kts | 141° |
| 2026-05-07 00:56 | 51.06741 | -113.92016 | 6764 ft | 281 kts | 169° |
| 2026-05-07 00:56 | 51.04787 | -113.92049 | 7655 ft | 284 kts | 197° |
| 2026-05-07 00:56 | 51.03038 | -113.93443 | 8657 ft | 283 kts | 223° |
| 2026-05-07 00:57 | 51.01847 | -113.95929 | 9684 ft | 280 kts | 249° |
| 2026-05-07 00:57 | 51.01470 | -113.98905 | 10494 ft | 284 kts | 273° |
| 2026-05-07 00:57 | 51.01926 | -114.02039 | 10924 ft | 304 kts | 296° |
| 2026-05-07 00:57 | 51.03086 | -114.04982 | 11382 ft | 324 kts | 307° |
| 2026-05-07 00:58 | 51.04516 | -114.07778 | 12333 ft | 326 kts | 310° |
| 2026-05-07 00:58 | 51.05989 | -114.10526 | 13388 ft | 328 kts | 310° |
| 2026-05-07 00:58 | 51.07403 | -114.13387 | 14303 ft | 331 kts | 302° |
| 2026-05-07 00:58 | 51.08388 | -114.16703 | 15166 ft | 336 kts | 288° |
| 2026-05-07 00:59 | 51.08918 | -114.24177 | 16941 ft | 347 kts | 271° |
| 2026-05-07 00:59 | 51.08795 | -114.28036 | 17812 ft | 352 kts | 268° |
| 2026-05-07 00:59 | 51.08592 | -114.31938 | 18601 ft | 356 kts | 268° |
| 2026-05-07 01:00 | 51.08369 | -114.35868 | 19358 ft | 359 kts | 267° |
| 2026-05-07 01:00 | 51.08147 | -114.39845 | 20108 ft | 362 kts | 268° |
| 2026-05-07 01:00 | 51.07930 | -114.43856 | 20837 ft | 366 kts | 268° |
| 2026-05-07 01:00 | 51.07716 | -114.47904 | 21519 ft | 370 kts | 268° |
| 2026-05-07 01:01 | 51.07502 | -114.51998 | 22191 ft | 374 kts | 268° |
| 2026-05-07 01:01 | 51.07284 | -114.56146 | 22861 ft | 378 kts | 268° |
| 2026-05-07 01:01 | 51.07020 | -114.60323 | 23466 ft | 383 kts | 264° |
| 2026-05-07 01:01 | 51.06478 | -114.64492 | 24006 ft | 387 kts | 258° |
| 2026-05-07 01:02 | 51.05808 | -114.68653 | 24547 ft | 390 kts | 258° |
| 2026-05-07 01:02 | 51.05142 | -114.72854 | 25055 ft | 393 kts | 258° |
| 2026-05-07 01:02 | 51.04476 | -114.77076 | 25528 ft | 395 kts | 258° |
| 2026-05-07 01:02 | 51.03804 | -114.81324 | 25978 ft | 398 kts | 258° |
| 2026-05-07 01:03 | 51.03118 | -114.85594 | 26387 ft | 401 kts | 258° |
| 2026-05-07 01:03 | 51.02424 | -114.89894 | 26832 ft | 403 kts | 258° |
| 2026-05-07 01:03 | 51.01724 | -114.94217 | 27251 ft | 406 kts | 258° |
| 2026-05-07 01:03 | 51.01019 | -114.98559 | 27689 ft | 407 kts | 258° |
| 2026-05-07 01:04 | 51.00308 | -115.02926 | 28087 ft | 409 kts | 258° |
| 2026-05-07 01:04 | 50.99594 | -115.07306 | 28474 ft | 411 kts | 258° |
| 2026-05-07 01:04 | 50.98874 | -115.11710 | 28869 ft | 413 kts | 258° |
| 2026-05-07 01:04 | 50.98150 | -115.16118 | 29266 ft | 414 kts | 258° |
| 2026-05-07 01:05 | 50.97422 | -115.20554 | 29578 ft | 417 kts | 258° |
| 2026-05-07 01:05 | 50.96938 | -115.23496 | 29834 ft | 417 kts | 258° |
| 2026-05-07 01:05 | 50.95953 | -115.29465 | 30286 ft | 419 kts | 258° |
| 2026-05-07 01:05 | 50.95209 | -115.33956 | 30575 ft | 422 kts | 258° |
| 2026-05-07 01:06 | 50.94462 | -115.38455 | 30885 ft | 423 kts | 258° |
| 2026-05-07 01:06 | 50.93710 | -115.42963 | 31307 ft | 422 kts | 258° |
| 2026-05-07 01:06 | 50.92957 | -115.47471 | 31731 ft | 421 kts | 258° |
| 2026-05-07 01:06 | 50.92208 | -115.51941 | 32207 ft | 419 kts | 258° |
| 2026-05-07 01:07 | 50.91461 | -115.56387 | 32673 ft | 416 kts | 259° |
| 2026-05-07 01:07 | 50.90718 | -115.60799 | 33140 ft | 414 kts | 259° |
| 2026-05-07 01:07 | 50.89976 | -115.65194 | 33558 ft | 412 kts | 259° |
| 2026-05-07 01:07 | 50.89236 | -115.69562 | 33927 ft | 410 kts | 259° |
| 2026-05-07 01:08 | 50.88498 | -115.73912 | 34208 ft | 408 kts | 259° |
| 2026-05-07 01:08 | 50.87761 | -115.78255 | 34467 ft | 408 kts | 259° |
| 2026-05-07 01:08 | 50.87022 | -115.82597 | 34676 ft | 409 kts | 259° |
| 2026-05-07 01:08 | 50.86280 | -115.86944 | 34936 ft | 408 kts | 259° |
| 2026-05-07 01:09 | 50.85538 | -115.91278 | 35241 ft | 407 kts | 259° |
| 2026-05-07 01:09 | 50.84795 | -115.95600 | 35416 ft | 409 kts | 259° |
| 2026-05-07 01:09 | 50.84048 | -115.99949 | 35610 ft | 409 kts | 259° |
| 2026-05-07 01:09 | 50.83299 | -116.04292 | 35847 ft | 409 kts | 259° |
| 2026-05-07 01:10 | 50.82559 | -116.08573 | 36041 ft | 409 kts | 259° |
| 2026-05-07 01:10 | 50.81808 | -116.12911 | 36236 ft | 410 kts | 259° |
| 2026-05-07 01:10 | 50.81053 | -116.17261 | 36454 ft | 410 kts | 259° |
| 2026-05-07 01:10 | 50.80297 | -116.21602 | 36644 ft | 410 kts | 259° |
| 2026-05-07 01:11 | 50.79540 | -116.25941 | 36840 ft | 410 kts | 259° |
| 2026-05-07 01:11 | 50.78779 | -116.30294 | 37028 ft | 410 kts | 259° |
| 2026-05-07 01:11 | 50.78016 | -116.34639 | 37184 ft | 411 kts | 259° |
| 2026-05-07 01:11 | 50.77253 | -116.38978 | 37379 ft | 410 kts | 259° |
| 2026-05-07 01:12 | 50.76489 | -116.43315 | 37570 ft | 410 kts | 259° |
| 2026-05-07 01:12 | 50.75723 | -116.47658 | 37696 ft | 411 kts | 259° |
| 2026-05-07 01:12 | 50.74910 | -116.51993 | 37874 ft | 412 kts | 258° |
| 2026-05-07 01:13 | 50.73191 | -116.60710 | 37922 ft | 420 kts | 258° |
| 2026-05-07 01:13 | 50.71452 | -116.69598 | 37926 ft | 427 kts | 258° |
| 2026-05-07 01:14 | 50.69701 | -116.78585 | 37919 ft | 428 kts | 258° |
| 2026-05-07 01:14 | 50.67957 | -116.87473 | 37927 ft | 421 kts | 258° |
| 2026-05-07 01:15 | 50.66213 | -116.96334 | 37925 ft | 426 kts | 258° |
| 2026-05-07 01:15 | 50.64457 | -117.05202 | 37918 ft | 413 kts | 258° |
| 2026-05-07 01:15 | 50.63608 | -117.09450 | 37913 ft | 402 kts | 257° |
| 2026-05-07 01:16 | 50.62772 | -117.13654 | 37906 ft | 404 kts | 259° |
| 2026-05-07 01:16 | 50.62560 | -117.14719 | 37895 ft | 404 kts | 258° |
| 2026-05-07 01:17 | 50.62206 | -117.16500 | 37911 ft | 403 kts | 258° |
| 2026-05-07 01:17 | 50.60533 | -117.24903 | 37908 ft | 402 kts | 258° |
| 2026-05-07 01:18 | 50.58831 | -117.33383 | 37899 ft | 407 kts | 258° |
| 2026-05-07 01:18 | 50.57133 | -117.41795 | 37896 ft | 405 kts | 258° |
| 2026-05-07 01:19 | 50.55423 | -117.50220 | 37880 ft | 404 kts | 258° |
| 2026-05-07 01:19 | 50.53711 | -117.58639 | 37878 ft | 404 kts | 258° |
| 2026-05-07 01:20 | 50.51988 | -117.67074 | 37861 ft | 405 kts | 258° |
| 2026-05-07 01:20 | 50.50267 | -117.75432 | 37856 ft | 399 kts | 259° |
| 2026-05-07 01:21 | 50.48550 | -117.83781 | 37855 ft | 403 kts | 259° |
| 2026-05-07 01:21 | 50.46820 | -117.92139 | 37852 ft | 403 kts | 259° |
| 2026-05-07 01:22 | 50.45089 | -118.00449 | 37854 ft | 399 kts | 259° |
| 2026-05-07 01:22 | 50.43360 | -118.08735 | 37851 ft | 399 kts | 259° |
| 2026-05-07 01:23 | 50.41626 | -118.17008 | 37857 ft | 400 kts | 259° |
| 2026-05-07 01:23 | 50.39882 | -118.25302 | 37854 ft | 401 kts | 259° |
| 2026-05-07 01:24 | 50.38131 | -118.33579 | 37851 ft | 399 kts | 259° |
| 2026-05-07 01:24 | 50.36384 | -118.41813 | 37852 ft | 399 kts | 259° |
| 2026-05-07 01:25 | 50.34632 | -118.50044 | 37851 ft | 399 kts | 259° |
| 2026-05-07 01:25 | 50.32871 | -118.58274 | 37846 ft | 397 kts | 259° |
| 2026-05-07 01:26 | 50.31124 | -118.66405 | 37844 ft | 394 kts | 259° |
| 2026-05-07 01:26 | 50.29364 | -118.74581 | 37846 ft | 398 kts | 259° |
| 2026-05-07 01:27 | 50.27590 | -118.82778 | 37839 ft | 397 kts | 259° |
| 2026-05-07 01:27 | 50.25815 | -118.90942 | 37838 ft | 396 kts | 259° |
| 2026-05-07 01:28 | 50.24042 | -118.99065 | 37834 ft | 394 kts | 259° |
| 2026-05-07 01:28 | 50.22263 | -119.07191 | 37836 ft | 394 kts | 259° |
| 2026-05-07 01:29 | 50.20484 | -119.15278 | 37839 ft | 394 kts | 259° |
| 2026-05-07 01:29 | 50.18702 | -119.23354 | 37842 ft | 393 kts | 259° |
| 2026-05-07 01:30 | 50.16920 | -119.31390 | 37845 ft | 391 kts | 259° |
| 2026-05-07 01:30 | 50.15139 | -119.39395 | 37839 ft | 391 kts | 259° |
| 2026-05-07 01:31 | 50.13353 | -119.47396 | 37850 ft | 391 kts | 259° |
| 2026-05-07 01:31 | 50.11574 | -119.55328 | 37854 ft | 390 kts | 259° |
| 2026-05-07 01:32 | 50.09783 | -119.63292 | 37873 ft | 389 kts | 259° |
| 2026-05-07 01:32 | 50.07975 | -119.71292 | 37856 ft | 387 kts | 259° |
| 2026-05-07 01:33 | 50.06199 | -119.79120 | 37865 ft | 387 kts | 259° |
| 2026-05-07 01:33 | 50.04403 | -119.87020 | 37871 ft | 387 kts | 259° |
| 2026-05-07 01:34 | 50.02602 | -119.94903 | 37884 ft | 387 kts | 259° |
| 2026-05-07 01:34 | 50.00794 | -120.02793 | 37892 ft | 389 kts | 259° |
| 2026-05-07 01:35 | 49.98973 | -120.10709 | 37906 ft | 388 kts | 259° |
| 2026-05-07 01:35 | 49.97156 | -120.18565 | 37911 ft | 386 kts | 259° |
| 2026-05-07 01:36 | 49.95336 | -120.26420 | 37926 ft | 387 kts | 259° |
| 2026-05-07 01:36 | 49.93820 | -120.32939 | 37932 ft | 386 kts | 259° |
| 2026-05-07 01:37 | 49.91994 | -120.40768 | 37941 ft | 386 kts | 258° |
| 2026-05-07 01:37 | 49.90163 | -120.48581 | 37944 ft | 385 kts | 258° |
| 2026-05-07 01:38 | 49.88332 | -120.56374 | 37950 ft | 384 kts | 258° |
| 2026-05-07 01:38 | 49.86500 | -120.64139 | 37951 ft | 383 kts | 258° |
| 2026-05-07 01:39 | 49.84666 | -120.71884 | 37951 ft | 383 kts | 258° |
| 2026-05-07 01:39 | 49.82830 | -120.79611 | 37954 ft | 382 kts | 258° |
| 2026-05-07 01:40 | 49.80986 | -120.87347 | 37723 ft | 385 kts | 258° |
| 2026-05-07 01:40 | 49.80059 | -120.91233 | 36988 ft | 386 kts | 258° |
| 2026-05-07 01:40 | 49.79120 | -120.95171 | 35836 ft | 396 kts | 258° |
| 2026-05-07 01:40 | 49.78158 | -120.99192 | 35105 ft | 398 kts | 258° |
| 2026-05-07 01:41 | 49.77193 | -121.03187 | 34609 ft | 394 kts | 258° |
| 2026-05-07 01:41 | 49.76231 | -121.07168 | 33852 ft | 397 kts | 258° |
| 2026-05-07 01:41 | 49.75268 | -121.11158 | 33180 ft | 396 kts | 258° |
| 2026-05-07 01:41 | 49.74305 | -121.15139 | 32490 ft | 395 kts | 257° |
| 2026-05-07 01:42 | 49.73343 | -121.19116 | 31776 ft | 395 kts | 257° |
| 2026-05-07 01:42 | 49.72380 | -121.23098 | 31067 ft | 396 kts | 257° |
| 2026-05-07 01:42 | 49.71415 | -121.27065 | 30596 ft | 391 kts | 257° |
| 2026-05-07 01:42 | 49.70460 | -121.30981 | 30107 ft | 388 kts | 257° |
| 2026-05-07 01:43 | 49.69513 | -121.34862 | 29578 ft | 384 kts | 256° |
| 2026-05-07 01:43 | 49.68576 | -121.38697 | 29102 ft | 383 kts | 256° |
| 2026-05-07 01:43 | 49.67617 | -121.42660 | 28600 ft | 403 kts | 256° |
| 2026-05-07 01:43 | 49.66623 | -121.46738 | 28096 ft | 408 kts | 255° |
| 2026-05-07 01:44 | 49.65957 | -121.49447 | 27746 ft | 408 kts | 255° |
| 2026-05-07 01:44 | 49.64610 | -121.54907 | 27054 ft | 403 kts | 255° |
| 2026-05-07 01:44 | 49.63950 | -121.57569 | 26728 ft | 400 kts | 255° |
| 2026-05-07 01:44 | 49.62645 | -121.62837 | 26048 ft | 394 kts | 255° |
| 2026-05-07 01:45 | 49.61988 | -121.65490 | 25704 ft | 391 kts | 255° |
| 2026-05-07 01:45 | 49.61021 | -121.69388 | 25211 ft | 387 kts | 255° |
| 2026-05-07 01:45 | 49.60064 | -121.73251 | 24679 ft | 384 kts | 254° |
| 2026-05-07 01:45 | 49.58794 | -121.78363 | 24038 ft | 379 kts | 254° |
| 2026-05-07 01:46 | 49.58168 | -121.80878 | 23656 ft | 379 kts | 254° |
| 2026-05-07 01:46 | 49.56916 | -121.85904 | 22991 ft | 372 kts | 254° |
| 2026-05-07 01:46 | 49.55993 | -121.89599 | 22519 ft | 367 kts | 253° |
| 2026-05-07 01:46 | 49.55083 | -121.93242 | 22029 ft | 362 kts | 253° |
| 2026-05-07 01:47 | 49.54186 | -121.96825 | 21559 ft | 357 kts | 253° |
| 2026-05-07 01:47 | 49.53297 | -122.00373 | 21091 ft | 353 kts | 253° |
| 2026-05-07 01:47 | 49.52350 | -122.03857 | 20617 ft | 352 kts | 249° |
| 2026-05-07 01:47 | 49.51204 | -122.07167 | 20143 ft | 350 kts | 243° |
| 2026-05-07 01:48 | 49.49909 | -122.10322 | 19682 ft | 346 kts | 242° |
| 2026-05-07 01:48 | 49.48643 | -122.13452 | 19209 ft | 345 kts | 243° |
| 2026-05-07 01:48 | 49.47402 | -122.16552 | 18721 ft | 345 kts | 243° |
| 2026-05-07 01:48 | 49.46150 | -122.19686 | 18247 ft | 343 kts | 243° |
| 2026-05-07 01:49 | 49.44898 | -122.22852 | 17764 ft | 340 kts | 243° |
| 2026-05-07 01:49 | 49.43677 | -122.25943 | 17297 ft | 337 kts | 243° |
| 2026-05-07 01:49 | 49.42464 | -122.29007 | 16833 ft | 334 kts | 243° |
| 2026-05-07 01:49 | 49.41258 | -122.32046 | 16367 ft | 332 kts | 243° |
| 2026-05-07 01:50 | 49.40046 | -122.35099 | 15911 ft | 350 kts | 242° |
| 2026-05-07 01:50 | 49.38737 | -122.38277 | 15670 ft | 354 kts | 240° |
| 2026-05-07 01:50 | 49.37370 | -122.41447 | 15222 ft | 357 kts | 240° |
| 2026-05-07 01:50 | 49.35981 | -122.44634 | 14416 ft | 364 kts | 240° |
| 2026-05-07 01:51 | 49.34570 | -122.47879 | 13721 ft | 365 kts | 240° |
| 2026-05-07 01:51 | 49.33178 | -122.51089 | 13232 ft | 358 kts | 240° |
| 2026-05-07 01:51 | 49.31809 | -122.54250 | 12737 ft | 353 kts | 240° |
| 2026-05-07 01:51 | 49.31057 | -122.55993 | 12457 ft | 350 kts | 239° |
| 2026-05-07 01:52 | 49.29729 | -122.59066 | 12155 ft | 340 kts | 239° |
| 2026-05-07 01:52 | 49.28449 | -122.62022 | 12017 ft | 326 kts | 240° |
| 2026-05-07 01:52 | 49.27224 | -122.64850 | 11894 ft | 312 kts | 240° |
| 2026-05-07 01:52 | 49.26050 | -122.67558 | 11774 ft | 299 kts | 240° |
| 2026-05-07 01:53 | 49.24983 | -122.70206 | 11581 ft | 286 kts | 249° |
| 2026-05-07 01:53 | 49.24505 | -122.73096 | 11189 ft | 279 kts | 269° |
| 2026-05-07 01:53 | 49.24694 | -122.76025 | 10691 ft | 276 kts | 281° |
| 2026-05-07 01:53 | 49.25045 | -122.78883 | 10315 ft | 272 kts | 281° |
| 2026-05-07 01:54 | 49.25112 | -122.79430 | 10266 ft | 271 kts | 281° |
| 2026-05-07 01:54 | 49.25410 | -122.81889 | 9947 ft | 269 kts | 281° |
| 2026-05-07 01:55 | 49.25743 | -122.84684 | 9596 ft | 265 kts | 281° |
| 2026-05-07 01:55 | 49.26067 | -122.87442 | 9272 ft | 261 kts | 280° |
| 2026-05-07 01:55 | 49.26380 | -122.90127 | 9111 ft | 252 kts | 280° |
| 2026-05-07 01:55 | 49.26679 | -122.92703 | 9009 ft | 241 kts | 280° |
| 2026-05-07 01:56 | 49.26978 | -122.95283 | 8915 ft | 249 kts | 280° |
| 2026-05-07 01:56 | 49.27280 | -122.97894 | 8748 ft | 249 kts | 280° |
| 2026-05-07 01:56 | 49.27479 | -122.99618 | 8553 ft | 249 kts | 280° |
| 2026-05-07 01:56 | 49.27875 | -123.03069 | 8281 ft | 240 kts | 280° |
| 2026-05-07 01:57 | 49.28164 | -123.05567 | 7990 ft | 237 kts | 281° |
| 2026-05-07 01:57 | 49.28458 | -123.08050 | 7643 ft | 237 kts | 281° |
| 2026-05-07 01:57 | 49.28753 | -123.10534 | 7318 ft | 237 kts | 281° |
| 2026-05-07 01:57 | 49.29045 | -123.12994 | 6869 ft | 235 kts | 281° |
| 2026-05-07 01:58 | 49.29237 | -123.14624 | 6641 ft | 232 kts | 281° |
| 2026-05-07 01:58 | 49.29617 | -123.17859 | 6240 ft | 229 kts | 281° |
| 2026-05-07 01:58 | 49.29803 | -123.19446 | 6050 ft | 228 kts | 281° |
| 2026-05-07 01:58 | 49.30176 | -123.22624 | 5678 ft | 225 kts | 281° |
| 2026-05-07 01:59 | 49.30444 | -123.24969 | 5518 ft | 224 kts | 278° |
| 2026-05-07 01:59 | 49.30510 | -123.26542 | 5489 ft | 225 kts | 270° |
| 2026-05-07 01:59 | 49.30359 | -123.29710 | 5273 ft | 220 kts | 267° |
| 2026-05-07 01:59 | 49.30245 | -123.32052 | 4979 ft | 221 kts | 267° |
| 2026-05-07 02:00 | 49.30173 | -123.33603 | 4782 ft | 220 kts | 267° |
| 2026-05-07 02:00 | 49.30030 | -123.36731 | 4382 ft | 220 kts | 267° |
| 2026-05-07 02:00 | 49.29863 | -123.39053 | 4097 ft | 220 kts | 257° |
| 2026-05-07 02:00 | 49.29502 | -123.40497 | 3891 ft | 220 kts | 243° |
| 2026-05-07 02:01 | 49.28122 | -123.42796 | 3296 ft | 222 kts | 213° |
| 2026-05-07 02:01 | 49.26691 | -123.43688 | 3004 ft | 228 kts | 192° |
| 2026-05-07 02:01 | 49.25649 | -123.43818 | 2805 ft | 226 kts | 176° |
| 2026-05-07 02:01 | 49.23755 | -123.42942 | 2719 ft | 200 kts | 149° |
| 2026-05-07 02:02 | 49.22736 | -123.41682 | 2684 ft | 179 kts | 134° |
| 2026-05-07 02:02 | 49.21972 | -123.40285 | 2568 ft | 165 kts | 125° |
| 2026-05-07 02:02 | 49.21397 | -123.38841 | 2438 ft | 151 kts | 116° |
| 2026-05-07 02:02 | 49.21007 | -123.37443 | 2265 ft | 138 kts | 109° |
| 2026-05-07 02:03 | 49.20755 | -123.36048 | 2005 ft | 133 kts | 101° |
| 2026-05-07 02:03 | 49.20602 | -123.34638 | 1950 ft | 137 kts | 99° |
| 2026-05-07 02:03 | 49.20441 | -123.33217 | 1849 ft | 133 kts | 100° |
| 2026-05-07 02:03 | 49.20388 | -123.32764 | 1773 ft | 132 kts | 100° |
| 2026-05-07 02:04 | 49.20171 | -123.30912 | 1352 ft | 132 kts | 101° |
| 2026-05-07 02:04 | 49.19960 | -123.29082 | 1044 ft | 133 kts | 101° |
| 2026-05-07 02:04 | 49.19802 | -123.27701 | 988 ft | 133 kts | 101° |
| 2026-05-07 02:04 | 49.19644 | -123.26319 | 806 ft | 129 kts | 101° |
| 2026-05-07 02:05 | 49.19490 | -123.24966 | 642 ft | 129 kts | 101° |
| 2026-05-07 02:05 | 49.19336 | -123.23621 | 465 ft | 128 kts | 100° |
| 2026-05-07 02:05 | 49.19186 | -123.22281 | 299 ft | 128 kts | 99° |
| 2026-05-07 02:05 | 49.19035 | -123.20944 | 140 ft | 127 kts | 99° |
| 2026-05-07 02:06 | 49.18932 | -123.20061 | 21 ft | 124 kts | 99° |
| 2026-05-07 02:06 | 49.18839 | -123.19271 | 17 ft | 102 kts | 101° |